createdAt,value
2023-04-10T00:00:38.583Z,9.18
2023-04-10T00:03:06.432Z,9.13
2023-04-10T00:05:33.839Z,9.10
2023-04-10T00:08:01.400Z,9.23
2023-04-10T00:10:30.972Z,9.93
2023-04-10T00:13:01.160Z,9.68
2023-04-10T00:15:29.183Z,9.40
2023-04-10T00:17:56.609Z,9.57
2023-04-10T00:20:24.191Z,9.63
2023-04-10T00:22:51.560Z,9.18
2023-04-10T00:25:18.973Z,9.60
2023-04-10T00:27:46.381Z,8.77
2023-04-10T00:30:13.620Z,8.02
2023-04-10T00:32:41.737Z,9.55
2023-04-10T00:35:09.574Z,8.02
2023-04-10T00:37:37.600Z,8.73
2023-04-10T00:40:06.762Z,9.40
2023-04-10T00:42:34.500Z,8.95
2023-04-10T00:45:01.771Z,9.63
2023-04-10T00:47:29.512Z,9.38
2023-04-10T00:49:56.993Z,9.40
2023-04-10T00:52:25.132Z,9.77
2023-04-10T00:54:53.096Z,10.15
2023-04-10T00:57:20.504Z,10.35
2023-04-10T00:59:49.380Z,9.73
2023-04-10T01:02:16.683Z,9.70
2023-04-10T01:04:44.581Z,10.20
2023-04-10T01:07:49.480Z,10.07
2023-04-10T01:10:49.066Z,9.45
2023-04-10T01:13:33.343Z,9.75
2023-04-10T01:16:17.004Z,9.65
2023-04-10T01:18:49.347Z,7.07
2023-04-10T01:21:18.213Z,7.57
2023-04-10T01:23:52.198Z,9.27
2023-04-10T01:26:50.010Z,10.82
2023-04-10T01:29:23.551Z,11.23
2023-04-10T01:32:08.702Z,10.48
2023-04-10T01:34:57.413Z,10.52
2023-04-10T01:37:34.979Z,10.63
2023-04-10T01:40:04.674Z,10.40
2023-04-10T01:42:35.898Z,10.75
2023-04-10T01:45:05.342Z,10.32
2023-04-10T01:47:33.075Z,10.32
2023-04-10T01:50:02.491Z,10.75
2023-04-10T01:52:31.782Z,11.60
2023-04-10T01:55:09.179Z,11.18
2023-04-10T01:57:52.127Z,9.93
2023-04-10T02:00:19.835Z,10.70
2023-04-10T02:02:47.502Z,10.23
2023-04-10T02:05:17.071Z,10.73
2023-04-10T02:07:54.979Z,10.65
2023-04-10T02:11:04.012Z,9.65
2023-04-10T02:13:36.254Z,8.55
2023-04-10T02:16:08.077Z,9.93
2023-04-10T02:18:37.176Z,11.02
2023-04-10T02:21:05.243Z,10.57
2023-04-10T02:23:32.542Z,9.90
2023-04-10T02:26:07.268Z,11.77
2023-04-10T02:28:34.833Z,12.00
2023-04-10T02:31:02.286Z,11.85
2023-04-10T02:33:29.691Z,10.90
2023-04-10T02:35:57.053Z,11.25
2023-04-10T02:38:24.495Z,13.10
2023-04-10T02:40:51.752Z,11.75
2023-04-10T02:43:19.327Z,12.18
2023-04-10T02:45:47.612Z,12.73
2023-04-10T02:48:21.956Z,11.68
2023-04-10T02:51:00.681Z,12.30
2023-04-10T02:53:29.548Z,11.85
2023-04-10T02:56:00.380Z,10.57
2023-04-10T02:58:31.136Z,11.75
2023-04-10T03:00:59.965Z,11.90
2023-04-10T03:03:42.484Z,11.70
2023-04-10T03:06:11.443Z,10.95
2023-04-10T03:08:41.152Z,9.30
2023-04-10T03:11:09.649Z,9.05
2023-04-10T03:13:36.913Z,8.90
2023-04-10T03:16:04.296Z,10.10
2023-04-10T03:18:32.393Z,9.32
2023-04-10T03:20:59.644Z,8.93
2023-04-10T03:23:26.881Z,10.77
2023-04-10T03:25:55.339Z,10.32
2023-04-10T03:28:26.717Z,10.90
2023-04-10T03:30:57.242Z,10.68
2023-04-10T03:33:24.650Z,11.23
2023-04-10T03:35:52.400Z,11.15
2023-04-10T03:38:19.990Z,11.05
2023-04-10T03:40:47.301Z,11.23
2023-04-10T03:43:16.480Z,10.05
2023-04-10T03:45:43.720Z,10.63
2023-04-10T03:48:12.372Z,10.50
2023-04-10T03:50:43.272Z,11.15
2023-04-10T03:53:10.859Z,11.88
2023-04-10T03:55:39.042Z,11.88
2023-04-10T03:58:06.392Z,10.57
2023-04-10T04:00:34.162Z,12.93
2023-04-10T04:03:10.742Z,11.38
2023-04-10T04:05:47.213Z,12.77
2023-04-10T04:08:32.788Z,12.98
2023-04-10T04:11:12.100Z,12.93
2023-04-10T04:13:56.731Z,12.30
2023-04-10T04:16:44.036Z,12.75
2023-04-10T04:19:34.129Z,13.35
2023-04-10T04:22:10.345Z,10.93
2023-04-10T04:24:55.929Z,12.68
2023-04-10T04:27:42.186Z,11.90
2023-04-10T04:30:24.190Z,12.13
2023-04-10T04:33:30.036Z,10.57
2023-04-10T04:36:03.911Z,10.73
2023-04-10T04:38:51.492Z,11.43
2023-04-10T04:41:39.001Z,10.75
2023-04-10T04:44:20.151Z,10.70
2023-04-10T04:47:10.298Z,9.20
2023-04-10T04:49:40.626Z,9.90
2023-04-10T04:52:24.313Z,10.05
2023-04-10T04:55:17.763Z,9.05
2023-04-10T04:57:58.664Z,9.68
2023-04-10T05:00:34.610Z,8.85
2023-04-10T05:03:40.959Z,8.55
2023-04-10T05:06:22.804Z,8.68
2023-04-10T05:09:13.148Z,8.23
2023-04-10T05:12:09.355Z,7.32
2023-04-10T05:15:03.586Z,9.55
2023-04-10T05:17:38.141Z,8.20
2023-04-10T05:20:15.185Z,8.60
2023-04-10T05:22:58.614Z,8.55
2023-04-10T05:25:36.786Z,8.75
2023-04-10T05:28:24.255Z,8.35
2023-04-10T05:31:14.472Z,8.10
2023-04-10T05:33:52.086Z,7.35
2023-04-10T05:36:38.179Z,8.32
2023-04-10T05:39:18.388Z,7.47
2023-04-10T05:42:06.628Z,7.85
2023-04-10T05:44:46.755Z,6.60
2023-04-10T05:47:32.745Z,7.85
2023-04-10T05:50:23.277Z,7.93
2023-04-10T05:53:14.332Z,7.15
2023-04-10T05:56:02.514Z,7.28
2023-04-10T05:59:04.842Z,6.88
2023-04-10T06:01:51.274Z,7.47
2023-04-10T06:04:18.951Z,7.07
2023-04-10T06:06:47.363Z,7.03
2023-04-10T06:09:14.578Z,6.97
2023-04-10T06:11:41.952Z,7.30
2023-04-10T06:14:09.349Z,6.78
2023-04-10T06:16:43.699Z,7.22
2023-04-10T06:19:11.721Z,7.60
2023-04-10T06:21:38.951Z,6.20
2023-04-10T06:24:06.679Z,7.05
2023-04-10T06:26:34.071Z,7.20
2023-04-10T06:29:04.499Z,7.30
2023-04-10T06:31:34.459Z,7.90
2023-04-10T06:34:02.483Z,8.07
2023-04-10T06:36:29.938Z,8.15
2023-04-10T06:39:03.174Z,8.30
2023-04-10T06:41:30.423Z,7.57
2023-04-10T06:44:07.444Z,8.45
2023-04-10T06:46:34.889Z,8.40
2023-04-10T06:49:02.204Z,8.10
2023-04-10T06:51:29.647Z,7.90
2023-04-10T06:53:57.022Z,7.97
2023-04-10T06:56:24.263Z,8.30
2023-04-10T06:58:51.623Z,7.88
2023-04-10T07:01:19.076Z,7.90
2023-04-10T07:03:46.616Z,7.97
2023-04-10T07:06:14.042Z,8.18
2023-04-10T07:08:41.520Z,7.60
2023-04-10T07:11:08.844Z,6.95
2023-04-10T07:13:39.044Z,7.65
2023-04-10T07:16:08.877Z,7.78
2023-04-10T07:18:38.843Z,8.00
2023-04-10T07:21:13.757Z,6.70
2023-04-10T07:23:41.290Z,7.68
2023-04-10T07:26:08.747Z,7.28
2023-04-10T07:28:36.838Z,6.65
2023-04-10T07:31:04.292Z,7.00
2023-04-10T07:33:31.835Z,7.07
2023-04-10T07:35:59.242Z,7.05
2023-04-10T07:38:27.673Z,7.60
2023-04-10T07:40:58.654Z,7.40
2023-04-10T07:43:26.341Z,7.07
2023-04-10T07:45:53.590Z,6.75
2023-04-10T07:48:20.973Z,7.15
2023-04-10T07:50:48.429Z,6.97
2023-04-10T07:53:16.077Z,7.13
2023-04-10T07:55:44.991Z,7.88
2023-04-10T07:58:12.182Z,7.32
2023-04-10T08:00:39.521Z,7.93
2023-04-10T08:03:07.590Z,7.13
2023-04-10T08:05:35.169Z,7.63
2023-04-10T08:08:02.417Z,7.50
2023-04-10T08:10:29.714Z,6.63
2023-04-10T08:12:56.914Z,6.70
2023-04-10T08:15:24.361Z,7.10
2023-04-10T08:17:51.665Z,7.55
2023-04-10T08:20:18.924Z,7.35
2023-04-10T08:22:46.326Z,6.60
2023-04-10T08:25:13.576Z,6.32
2023-04-10T08:27:40.830Z,7.05
2023-04-10T08:30:08.698Z,6.68
2023-04-10T08:32:36.887Z,6.43
2023-04-10T08:35:04.441Z,6.05
2023-04-10T08:37:31.701Z,5.75
2023-04-10T08:39:59.154Z,6.20
2023-04-10T08:42:26.680Z,6.53
2023-04-10T08:44:53.976Z,5.93
2023-04-10T08:47:21.983Z,6.63
2023-04-10T08:49:56.756Z,6.43
2023-04-10T08:52:29.951Z,6.22
2023-04-10T08:54:58.988Z,6.10
2023-04-10T08:57:27.600Z,6.07
2023-04-10T08:59:54.994Z,5.82
2023-04-10T09:02:22.576Z,5.57
2023-04-10T09:04:52.191Z,5.72
2023-04-10T09:07:19.620Z,5.60
2023-04-10T09:09:47.280Z,5.50
2023-04-10T09:12:16.084Z,5.88
2023-04-10T09:14:43.929Z,5.22
2023-04-10T09:17:23.034Z,4.65
2023-04-10T09:19:53.123Z,5.40
2023-04-10T09:22:31.785Z,5.60
2023-04-10T09:25:00.318Z,5.32
2023-04-10T09:27:32.121Z,5.80
2023-04-10T09:29:59.881Z,5.70
2023-04-10T09:32:40.187Z,5.65
2023-04-10T09:35:09.871Z,5.78
2023-04-10T09:37:37.526Z,5.20
2023-04-10T09:40:05.796Z,5.10
2023-04-10T09:42:35.748Z,4.25
2023-04-10T09:45:03.640Z,5.10
2023-04-10T09:47:31.988Z,4.93
2023-04-10T09:50:03.280Z,5.20
2023-04-10T09:52:31.525Z,5.43
2023-04-10T09:55:04.646Z,5.65
2023-04-10T09:57:34.004Z,4.78
2023-04-10T10:00:07.727Z,4.72
2023-04-10T10:02:39.425Z,5.13
2023-04-10T10:05:07.828Z,5.10
2023-04-10T10:07:35.411Z,5.72
2023-04-10T10:10:03.890Z,5.50
2023-04-10T10:13:04.451Z,6.05
2023-04-10T10:15:58.139Z,5.70
2023-04-10T10:18:32.590Z,5.15
2023-04-10T10:21:01.599Z,5.70
2023-04-10T10:23:29.309Z,5.60
2023-04-10T10:25:58.880Z,5.55
2023-04-10T10:28:28.633Z,5.65
2023-04-10T10:30:56.028Z,5.10
2023-04-10T10:33:25.666Z,5.22
2023-04-10T10:35:54.032Z,5.47
2023-04-10T10:38:21.816Z,6.10
2023-04-10T10:41:13.138Z,5.22
2023-04-10T10:43:56.227Z,5.30
2023-04-10T10:46:51.439Z,4.45
2023-04-10T10:49:18.735Z,5.97
2023-04-10T10:51:48.323Z,5.70
2023-04-10T10:54:33.457Z,5.18
2023-04-10T10:57:03.277Z,5.32
2023-04-10T10:59:48.613Z,5.68
2023-04-10T11:02:19.035Z,5.55
2023-04-10T11:04:48.370Z,5.28
2023-04-10T11:07:17.012Z,6.00
2023-04-10T11:09:53.232Z,5.82
2023-04-10T11:12:23.948Z,5.57
2023-04-10T11:15:02.479Z,5.40
2023-04-10T11:18:02.171Z,5.30
2023-04-10T11:20:29.532Z,5.65
2023-04-10T11:23:12.640Z,5.75
2023-04-10T11:25:54.008Z,4.22
2023-04-10T11:28:40.109Z,6.35
2023-04-10T11:31:24.158Z,5.70
2023-04-10T11:34:00.287Z,5.22
2023-04-10T11:36:28.147Z,4.30
2023-04-10T11:39:13.663Z,4.45
2023-04-10T11:41:43.599Z,4.95
2023-04-10T11:44:13.029Z,5.30
2023-04-10T11:46:47.382Z,4.93
2023-04-10T11:49:22.962Z,4.90
2023-04-10T11:51:51.904Z,4.22
2023-04-10T11:54:21.995Z,4.03
2023-04-10T11:57:01.608Z,4.03
2023-04-10T11:59:29.987Z,4.47
2023-04-10T12:02:16.552Z,3.97
2023-04-10T12:04:44.998Z,4.07
2023-04-10T12:07:12.650Z,3.97
2023-04-10T12:09:41.021Z,3.70
2023-04-10T12:12:08.887Z,4.20
2023-04-10T12:14:41.894Z,4.00
2023-04-10T12:17:11.490Z,3.92
2023-04-10T12:19:40.026Z,4.20
2023-04-10T12:22:08.028Z,3.50
2023-04-10T12:24:45.367Z,3.70
2023-04-10T12:27:27.527Z,3.50
2023-04-10T12:29:57.278Z,3.90
2023-04-10T12:32:26.017Z,3.80
2023-04-10T12:35:03.076Z,3.72
2023-04-10T12:37:52.729Z,3.70
2023-04-10T12:40:21.060Z,3.60
2023-04-10T12:42:48.576Z,3.58
2023-04-10T12:45:16.076Z,3.10
2023-04-10T12:47:48.646Z,3.45
2023-04-10T12:52:45.955Z,3.47
2023-04-10T12:55:18.775Z,3.38
2023-04-10T12:57:49.064Z,3.75
2023-04-10T13:00:18.884Z,3.58
2023-04-10T13:02:47.615Z,3.65
2023-04-10T13:05:16.257Z,3.90
2023-04-10T13:07:43.715Z,3.88
2023-04-10T13:10:11.291Z,3.35
2023-04-10T13:12:39.396Z,3.70
2023-04-10T13:15:08.050Z,3.75
2023-04-10T13:17:35.838Z,3.63
2023-04-10T13:20:03.433Z,3.70
2023-04-10T13:22:30.849Z,3.50
2023-04-10T13:24:58.039Z,3.78
2023-04-10T13:27:25.344Z,3.58
2023-04-10T13:29:52.581Z,3.60
2023-04-10T13:32:19.827Z,2.75
2023-04-10T13:34:47.151Z,2.60
2023-04-10T13:37:14.632Z,2.90
2023-04-10T13:39:43.899Z,3.42
2023-04-10T13:42:11.269Z,3.47
2023-04-10T13:44:38.694Z,3.08
2023-04-10T13:47:06.813Z,3.15
2023-04-10T13:49:34.061Z,3.00
2023-04-10T13:52:01.360Z,2.85
2023-04-10T13:54:28.988Z,3.22
2023-04-10T13:56:56.523Z,3.25
2023-04-10T13:59:23.835Z,3.55
2023-04-10T14:01:54.336Z,3.20
2023-04-10T14:04:21.808Z,3.17
2023-04-10T14:06:51.632Z,3.30
2023-04-10T14:09:19.896Z,3.00
2023-04-10T14:11:47.133Z,2.63
2023-04-10T14:14:14.453Z,3.10
2023-04-10T14:16:41.827Z,2.92
2023-04-10T14:19:09.277Z,3.50
2023-04-10T14:21:37.752Z,3.47
2023-04-10T14:24:05.042Z,3.13
2023-04-10T14:26:32.315Z,3.55
2023-04-10T14:28:59.658Z,3.03
2023-04-10T14:31:29.441Z,3.42
2023-04-10T14:33:56.902Z,3.00
2023-04-10T14:36:24.149Z,3.25
2023-04-10T14:38:51.638Z,2.83
2023-04-10T14:41:19.013Z,3.40
2023-04-10T14:43:46.349Z,3.15
2023-04-10T14:46:13.739Z,3.35
2023-04-10T14:48:41.183Z,3.28
2023-04-10T14:51:13.210Z,2.90
2023-04-10T14:53:40.704Z,3.20
2023-04-10T14:56:15.476Z,2.95
2023-04-10T14:58:43.595Z,3.08
2023-04-10T15:01:13.607Z,2.70
2023-04-10T15:03:41.066Z,3.25
2023-04-10T15:06:08.469Z,3.15
2023-04-10T15:08:35.867Z,3.00
2023-04-10T15:11:05.755Z,2.90
2023-04-10T15:13:33.360Z,3.20
2023-04-10T15:16:00.973Z,2.53
2023-04-10T15:18:28.252Z,2.88
2023-04-10T15:20:56.373Z,2.72
2023-04-10T15:23:23.796Z,2.90
2023-04-10T15:25:51.394Z,2.60
2023-04-10T15:28:18.703Z,2.75
2023-04-10T15:30:46.164Z,2.90
2023-04-10T15:33:13.392Z,2.92
2023-04-10T15:35:40.691Z,3.05
2023-04-10T15:38:09.844Z,1.98
2023-04-10T15:40:37.438Z,2.60
2023-04-10T15:43:04.826Z,2.78
2023-04-10T15:45:32.089Z,2.58
2023-04-10T15:48:01.665Z,3.03
2023-04-10T15:50:28.900Z,3.15
2023-04-10T15:52:56.289Z,2.88
2023-04-10T15:55:23.622Z,2.67
2023-04-10T15:57:50.898Z,2.95
2023-04-10T16:00:18.419Z,2.80
2023-04-10T16:02:45.888Z,2.60
2023-04-10T16:05:13.432Z,2.72
2023-04-10T16:07:42.473Z,2.83
2023-04-10T16:10:10.073Z,2.70
2023-04-10T16:12:37.650Z,2.25
2023-04-10T16:15:06.323Z,2.70
2023-04-10T16:17:33.632Z,2.30
2023-04-10T16:20:01.333Z,2.60
2023-04-10T16:22:28.630Z,2.80
2023-04-10T16:24:57.327Z,2.83
2023-04-10T16:27:24.732Z,2.70
2023-04-10T16:29:52.150Z,2.90
2023-04-10T16:32:20.910Z,2.63
2023-04-10T16:34:48.265Z,2.70
2023-04-10T16:37:15.705Z,2.63
2023-04-10T16:39:43.030Z,2.75
2023-04-10T16:42:10.249Z,3.00
2023-04-10T16:44:37.554Z,2.58
2023-04-10T16:47:04.872Z,3.10
2023-04-10T16:49:32.229Z,2.60
2023-04-10T16:51:59.537Z,2.50
2023-04-10T16:54:27.120Z,2.88
2023-04-10T16:56:54.380Z,2.78
2023-04-10T16:59:21.661Z,2.90
2023-04-10T17:01:48.916Z,3.03
2023-04-10T17:04:18.670Z,3.17
2023-04-10T17:06:46.203Z,2.88
2023-04-10T17:09:13.444Z,2.95
2023-04-10T17:11:40.832Z,3.25
2023-04-10T17:14:09.403Z,3.10
2023-04-10T17:16:37.170Z,2.90
2023-04-10T17:19:04.472Z,3.15
2023-04-10T17:21:31.880Z,3.13
2023-04-10T17:23:59.152Z,3.10
2023-04-10T17:26:26.364Z,2.95
2023-04-10T17:28:54.001Z,2.97
2023-04-10T17:31:21.485Z,2.85
2023-04-10T17:33:48.882Z,2.88
2023-04-10T17:36:16.250Z,3.10
2023-04-10T17:38:43.706Z,2.88
2023-04-10T17:41:16.398Z,3.65
2023-04-10T17:43:43.783Z,3.08
2023-04-10T17:46:17.356Z,3.45
2023-04-10T17:48:45.376Z,3.53
2023-04-10T17:51:12.895Z,3.15
2023-04-10T17:53:40.150Z,3.03
2023-04-10T17:56:07.943Z,3.40
2023-04-10T17:58:35.368Z,3.30
2023-04-10T18:01:02.733Z,3.05
2023-04-10T18:03:30.079Z,3.10
2023-04-10T18:05:57.362Z,3.35
2023-04-10T18:08:24.651Z,3.40
2023-04-10T18:10:51.903Z,3.38
2023-04-10T18:13:19.258Z,3.40
2023-04-10T18:15:46.676Z,3.50
2023-04-10T18:18:14.082Z,3.65
2023-04-10T18:20:41.422Z,3.25
2023-04-10T18:23:08.762Z,3.25
2023-04-10T18:25:36.074Z,3.33
2023-04-10T18:30:33.570Z,3.70
2023-04-10T18:33:02.131Z,3.47
2023-04-10T18:35:31.525Z,3.45
2023-04-10T18:37:59.164Z,3.97
2023-04-10T18:40:26.539Z,3.45
2023-04-10T18:42:53.720Z,3.72
2023-04-10T18:45:21.895Z,3.35
2023-04-10T18:47:49.098Z,3.28
2023-04-10T18:50:16.435Z,3.55
2023-04-10T18:52:44.084Z,3.70
2023-04-10T18:55:11.425Z,4.15
2023-04-10T18:57:38.687Z,3.63
2023-04-10T19:00:08.534Z,3.67
2023-04-10T19:02:35.939Z,4.70
2023-04-10T19:05:03.712Z,4.50
2023-04-10T19:07:33.027Z,4.43
2023-04-10T19:10:00.309Z,4.13
2023-04-10T19:12:27.518Z,4.38
2023-04-10T19:14:54.765Z,3.90
2023-04-10T19:17:25.225Z,4.50
2023-04-10T19:19:53.610Z,3.92
2023-04-10T19:22:20.821Z,4.38
2023-04-10T19:24:48.596Z,4.10
2023-04-10T19:27:15.949Z,4.50
2023-04-10T19:29:43.353Z,4.28
2023-04-10T19:32:10.753Z,4.40
2023-04-10T19:34:38.057Z,4.53
2023-04-10T19:37:05.440Z,4.40
2023-04-10T19:39:32.696Z,4.32
2023-04-10T19:41:59.941Z,4.60
2023-04-10T19:44:27.167Z,4.05
2023-04-10T19:46:54.577Z,4.10
2023-04-10T19:49:21.936Z,4.10
2023-04-10T19:51:49.373Z,4.00
2023-04-10T19:54:16.659Z,4.47
2023-04-10T19:56:43.857Z,3.90
2023-04-10T19:59:11.168Z,4.78
2023-04-10T20:01:38.503Z,4.30
2023-04-10T20:04:06.012Z,4.40
2023-04-10T20:06:33.387Z,4.60
2023-04-10T20:09:00.655Z,4.32
2023-04-10T20:11:30.877Z,5.10
2023-04-10T20:13:58.147Z,4.57
2023-04-10T20:16:26.756Z,4.50
2023-04-10T20:18:55.564Z,4.80
2023-04-10T20:21:23.112Z,5.47
2023-04-10T20:23:50.394Z,4.60
2023-04-10T20:26:17.864Z,4.70
2023-04-10T20:28:45.115Z,4.38
2023-04-10T20:31:12.572Z,4.60
2023-04-10T20:33:39.863Z,4.50
2023-04-10T20:36:08.212Z,4.75
2023-04-10T20:38:35.464Z,4.85
2023-04-10T20:41:02.789Z,4.68
2023-04-10T20:43:30.164Z,4.32
2023-04-10T20:45:57.658Z,4.97
2023-04-10T20:48:24.916Z,5.20
2023-04-10T20:50:55.262Z,5.03
2023-04-10T20:53:22.465Z,4.72
2023-04-10T20:55:54.686Z,5.15
2023-04-10T20:58:22.576Z,4.85
2023-04-10T21:00:53.421Z,4.75
2023-04-10T21:03:21.651Z,5.10
2023-04-10T21:05:49.493Z,4.90
2023-04-10T21:08:17.268Z,5.35
2023-04-10T21:10:44.729Z,4.97
2023-04-10T21:13:15.495Z,6.20
2023-04-10T21:15:43.278Z,4.85
2023-04-10T21:18:10.892Z,5.03
2023-04-10T21:20:38.322Z,4.28
2023-04-10T21:23:05.635Z,4.22
2023-04-10T21:25:34.031Z,5.00
2023-04-10T21:28:02.121Z,5.05
2023-04-10T21:30:29.989Z,4.90
2023-04-10T21:32:57.320Z,4.90
2023-04-10T21:35:25.180Z,4.43
2023-04-10T21:37:58.333Z,4.90
2023-04-10T21:40:30.383Z,4.10
2023-04-10T21:42:57.601Z,4.60
2023-04-10T21:45:25.112Z,4.70
2023-04-10T21:47:52.479Z,4.63
2023-04-10T21:50:19.888Z,4.72
2023-04-10T21:52:47.870Z,5.05
2023-04-10T21:55:18.413Z,5.32
2023-04-10T21:57:45.769Z,4.90
2023-04-10T22:00:14.199Z,5.10
2023-04-10T22:02:41.526Z,5.05
2023-04-10T22:05:09.129Z,5.28
2023-04-10T22:07:36.350Z,5.57
2023-04-10T22:10:03.812Z,5.10
2023-04-10T22:12:31.101Z,5.20
2023-04-10T22:14:58.361Z,5.28
2023-04-10T22:17:26.072Z,5.05
2023-04-10T22:19:53.380Z,5.07
2023-04-10T22:22:21.221Z,5.32
2023-04-10T22:24:48.540Z,5.40
2023-04-10T22:27:16.067Z,5.97
2023-04-10T22:29:47.558Z,5.63
2023-04-10T22:32:17.571Z,5.38
2023-04-10T22:34:44.864Z,5.50
2023-04-10T22:37:12.083Z,5.32
2023-04-10T22:39:39.347Z,5.22
2023-04-10T22:42:06.748Z,4.65
2023-04-10T22:44:34.034Z,5.22
2023-04-10T22:47:01.300Z,4.95
2023-04-10T22:49:28.463Z,5.28
2023-04-10T22:51:55.744Z,5.25
2023-04-10T22:54:23.019Z,5.43
2023-04-10T22:56:51.175Z,5.07
2023-04-10T22:59:18.848Z,5.20
2023-04-10T23:01:46.310Z,5.15
2023-04-10T23:04:13.830Z,5.25
2023-04-10T23:06:41.280Z,4.82
2023-04-10T23:09:08.431Z,4.93
2023-04-10T23:11:37.127Z,5.30
2023-04-10T23:14:04.385Z,5.00
2023-04-10T23:16:31.901Z,5.40
2023-04-10T23:18:59.296Z,5.03
2023-04-10T23:21:27.559Z,5.43
2023-04-10T23:23:54.823Z,5.25
2023-04-10T23:26:22.121Z,4.70
2023-04-10T23:28:49.516Z,5.25
2023-04-10T23:31:17.070Z,4.90
2023-04-10T23:33:44.573Z,4.72
2023-04-10T23:36:11.879Z,5.05
2023-04-10T23:38:39.128Z,4.70
2023-04-10T23:41:07.466Z,4.93
2023-04-10T23:43:34.756Z,3.97
2023-04-10T23:46:02.131Z,5.03
2023-04-10T23:48:29.360Z,5.15
2023-04-10T23:51:04.507Z,5.07
2023-04-10T23:53:31.765Z,5.00
2023-04-10T23:55:59.094Z,4.35
2023-04-10T23:58:26.641Z,3.25
